Current | Radar | Forecast | Satellite
  National Weather Service:
High Surf Advisory, Coastal Hazard Statement
    

Updated: 7:54 PM ChST on January 17, 2018
Observed at Guam Agana, Guam
Temperature 28°C
Humidity 76%
Dew Point 23°C
Wind ENE at 20 km/h
Pressure 1010 hPa (Rising)
Conditions Mostly Cloudy
Visibility 16.1 kilometers
UV 0 out of 16
Clouds Scattered Clouds (SCT) : 1158 m
Mostly Cloudy (BKN) : 1371 m
Yesterday's Maximum 31°C
Yesterday's Minimum 27°C approx.
Yesterday's Cooling Degree Days 19 approx.
Sunrise6:48 AM ChST
Sunset6:13 PM ChST
Moon Rise6:38 AM ChST
Moon Set6:21 PM ChST
Moon PhaseMoon Phase
New Moon
Raw METARMETAR PGUM 170954Z 07011KT 10SM SCT038 BKN045 28/23 A2986 RMK AO2 SLP104 T02780233

Hagatna, GU

Current Radar

Radar Map
Zoom into radar image
Zoom into animated radar image


  National Weather Service:
High Surf Advisory, Coastal Hazard Statement
    

Click here for Marine Information
Scientific forecaster discussion (NWS)

Units: English | Metric

Find the Weather for any City, State or Zipcode, or Country:

U.S. State List | Severe Weather | Tropical Storms | Ski Conditions
United States | Canada | Central America | South America | Asia | Europe | Australia | Africa | Islands

Weather Underground

© Copyright 2018
The Weather Company, LLC